Time;durP1;ratioP1;P1;durP2;ratioP2;P2;SDS_P1;SDS_P2;PMS_P1;PMS_P2;Temp;Humidity;BMP_temperature;BMP_pressure;BME280_temperature;BME280_humidity;BME280_pressure;Samples;Min_cycle;Max_cycle;Signal;HPM_P1;HPM_P2
2022/08/24 00:00:30;;;;;;;2.25;0.43;;;;;;;21.83;46.45;101599.38;2056261;28;20039;-70
2022/08/24 00:01:32;;;;;;;1.05;0.30;;;;;;;21.81;46.74;101587.69;2054446;28;29128;-70
2022/08/24 00:02:38;;;;;;;2.30;0.45;;;;;;;21.81;46.04;101586.81;2058425;28;20135;-69
2022/08/24 00:03:41;;;;;;;2.25;0.30;;;;;;;21.79;46.45;101592.38;2062777;28;25722;-69
2022/08/24 00:04:43;;;;;;;4.32;0.50;;;;;;;21.79;46.29;101586.91;2062153;28;23910;-70
2022/08/24 00:05:46;;;;;;;3.03;0.50;;;;;;;21.76;46.92;101588.94;2055417;28;26695;-69
2022/08/24 00:06:48;;;;;;;2.65;0.40;;;;;;;21.74;46.37;101586.31;2055937;28;33569;-69
2022/08/24 00:07:50;;;;;;;3.55;0.40;;;;;;;21.71;46.53;101581.94;2055370;28;20877;-69
2022/08/24 00:08:54;;;;;;;2.22;0.40;;;;;;;21.68;46.77;101587.56;2055798;28;23354;-70
2022/08/24 00:09:56;;;;;;;3.13;0.50;;;;;;;21.66;47.17;101589.50;2055799;28;20904;-70
2022/08/24 00:10:58;;;;;;;3.78;0.40;;;;;;;21.67;46.73;101580.34;2063166;28;23504;-69
2022/08/24 00:12:02;;;;;;;3.80;0.57;;;;;;;21.65;47.01;101593.19;2062235;28;36316;-70
2022/08/24 00:13:04;;;;;;;2.65;0.50;;;;;;;21.63;47.37;101592.41;2055448;28;21153;-70
2022/08/24 00:14:06;;;;;;;3.00;0.47;;;;;;;21.61;46.85;101585.28;2054645;28;26540;-70
2022/08/24 00:15:11;;;;;;;3.03;0.80;;;;;;;21.61;47.22;101586.16;2055340;28;29693;-69
2022/08/24 00:16:15;;;;;;;3.13;0.40;;;;;;;21.62;46.97;101585.19;2055436;28;20043;-70
2022/08/24 00:17:19;;;;;;;1.67;0.30;;;;;;;21.61;47.06;101586.16;2055634;28;25642;-69
2022/08/24 00:18:21;;;;;;;2.50;0.40;;;;;;;21.59;46.88;101576.31;2055807;28;20051;-70
2022/08/24 00:19:26;;;;;;;2.15;0.60;;;;;;;21.55;47.36;101581.06;2054992;28;39679;-70
2022/08/24 00:20:29;;;;;;;1.67;0.50;;;;;;;21.54;47.15;101590.22;2062383;28;25064;-70
2022/08/24 00:21:31;;;;;;;2.03;0.50;;;;;;;21.51;47.32;101588.53;2055524;28;20090;-70
2022/08/24 00:22:32;;;;;;;2.60;0.40;;;;;;;21.51;47.52;101582.22;2054104;28;31403;-71
2022/08/24 00:23:35;;;;;;;2.13;0.40;;;;;;;21.48;47.82;101579.66;2063061;28;26962;-71
2022/08/24 00:24:37;;;;;;;2.15;0.30;;;;;;;21.47;47.62;101575.19;2063428;28;20046;-69
2022/08/24 00:25:38;;;;;;;2.08;0.40;;;;;;;21.47;47.35;101586.09;2063272;28;27556;-70
2022/08/24 00:26:40;;;;;;;1.85;0.40;;;;;;;21.45;47.88;101591.63;2062254;28;37685;-70
2022/08/24 00:27:42;;;;;;;2.25;0.43;;;;;;;21.45;47.49;101593.47;2063327;28;26012;-70
2022/08/24 00:28:44;;;;;;;2.70;0.40;;;;;;;21.43;47.31;101585.38;2062339;28;29124;-70
2022/08/24 00:29:48;;;;;;;2.17;0.30;;;;;;;21.43;47.59;101582.66;2056055;28;21817;-70
2022/08/24 00:30:50;;;;;;;1.63;0.50;;;;;;;21.43;47.66;101589.94;2055722;28;20043;-70
2022/08/24 00:31:52;;;;;;;1.83;0.50;;;;;;;21.40;48.28;101590.97;2055568;28;25442;-70
2022/08/24 00:32:54;;;;;;;4.53;0.40;;;;;;;21.40;47.95;101592.84;2056475;28;21771;-68
2022/08/24 00:33:57;;;;;;;3.83;0.50;;;;;;;21.38;48.17;101589.34;2055685;28;20043;-70
2022/08/24 00:34:59;;;;;;;3.05;0.52;;;;;;;21.36;48.24;101584.84;2062849;28;20050;-69
2022/08/24 00:36:02;;;;;;;0.80;0.30;;;;;;;21.35;48.25;101588.53;2055165;28;20843;-69
2022/08/24 00:37:04;;;;;;;4.82;0.50;;;;;;;21.35;48.32;101588.53;2046511;28;22217;-68
2022/08/24 00:38:05;;;;;;;4.80;0.57;;;;;;;21.35;48.25;101590.38;2055348;28;20055;-68
2022/08/24 00:39:07;;;;;;;1.80;0.40;;;;;;;21.35;47.96;101587.66;2062595;28;27277;-69
2022/08/24 00:40:26;;;;;;;4.07;0.45;;;;;;;21.33;48.02;101590.44;2047085;28;20115;-69
2022/08/24 00:41:30;;;;;;;4.35;0.50;;;;;;;21.33;48.11;101593.19;2049019;28;20048;-70
2022/08/24 00:42:32;;;;;;;4.40;0.60;;;;;;;21.33;48.70;101587.72;2054694;28;29864;-70
2022/08/24 00:43:34;;;;;;;6.63;0.40;;;;;;;21.34;48.11;101581.31;2054500;28;23340;-69
2022/08/24 00:44:36;;;;;;;5.78;0.55;;;;;;;21.33;48.68;101586.84;2055428;28;36106;-69
2022/08/24 00:45:48;;;;;;;2.88;0.50;;;;;;;21.32;48.61;101582.41;2055573;28;20039;-69
2022/08/24 00:47:04;;;;;;;3.00;0.40;;;;;;;21.32;48.91;101586.00;2063290;28;26120;-70
2022/08/24 00:48:16;;;;;;;3.13;0.40;;;;;;;21.32;48.37;101577.81;2055292;28;20047;-66
2022/08/24 00:49:39;;;;;;;4.22;0.60;;;;;;;21.31;48.14;101586.06;2055270;28;20039;-69
2022/08/24 00:50:59;;;;;;;2.47;0.40;;;;;;;21.29;48.88;101585.28;2056028;28;20035;-70
2022/08/24 00:52:18;;;;;;;2.03;0.50;;;;;;;21.27;48.56;101582.66;2054591;28;20055;-69
2022/08/24 00:53:36;;;;;;;3.35;0.43;;;;;;;21.24;49.09;101587.41;2049750;28;20071;-69
2022/08/24 00:54:49;;;;;;;3.28;0.60;;;;;;;21.24;49.10;101588.25;2059444;28;20117;-69
2022/08/24 00:55:57;;;;;;;3.00;0.50;;;;;;;21.23;48.72;101597.41;2054611;28;29804;-70
2022/08/24 00:57:03;;;;;;;2.15;0.50;;;;;;;21.23;48.73;101593.78;2048725;28;28775;-70
2022/08/24 00:58:15;;;;;;;3.50;0.65;;;;;;;21.22;48.93;101578.44;2047310;28;20914;-70
2022/08/24 00:59:24;;;;;;;4.35;0.70;;;;;;;21.21;48.97;101585.75;2055389;28;20773;-70
2022/08/24 01:00:38;;;;;;;3.22;0.35;;;;;;;21.17;49.30;101585.03;2055059;28;20328;-70
2022/08/24 01:01:43;;;;;;;1.20;0.40;;;;;;;21.15;48.77;101589.66;2063011;28;27785;-70
2022/08/24 01:02:51;;;;;;;2.50;0.52;;;;;;;21.14;49.20;101590.66;2054666;28;25419;-70
2022/08/24 01:03:56;;;;;;;3.72;0.40;;;;;;;21.12;49.68;101583.53;2050285;28;21021;-70
2022/08/24 01:05:05;;;;;;;2.45;0.30;;;;;;;21.11;48.99;101585.38;2054598;28;25365;-70
2022/08/24 01:06:07;;;;;;;3.25;0.40;;;;;;;21.09;49.41;101591.88;2055413;28;26473;-70
2022/08/24 01:07:09;;;;;;;3.17;0.70;;;;;;;21.10;49.37;101590.91;2062600;28;20864;-70
2022/08/24 01:08:12;;;;;;;3.85;0.40;;;;;;;21.10;49.63;101586.34;2062595;28;20129;-70
2022/08/24 01:09:15;;;;;;;2.40;0.57;;;;;;;21.06;49.50;101581.16;2062769;28;20047;-70
2022/08/24 01:10:24;;;;;;;2.80;0.50;;;;;;;21.06;49.67;101589.31;2062505;28;22231;-70
2022/08/24 01:11:32;;;;;;;2.10;0.57;;;;;;;21.02;49.31;101585.03;2054547;28;32726;-70
2022/08/24 01:12:38;;;;;;;4.53;0.50;;;;;;;21.00;49.95;101589.66;2048004;28;20036;-70
2022/08/24 01:13:44;;;;;;;2.75;0.40;;;;;;;20.98;49.90;101593.38;2055545;28;20051;-70
2022/08/24 01:14:47;;;;;;;2.33;0.40;;;;;;;20.95;49.75;101589.94;2054095;28;20994;-70
2022/08/24 01:15:53;;;;;;;3.33;0.50;;;;;;;20.94;49.78;101594.50;2047519;28;21052;-70
2022/08/24 01:19:49;;;;;;;2.83;0.43;;;;;;;20.89;50.10;101592.97;2059932;28;21351;-69
2022/08/24 01:21:39;;;;;;;2.83;0.60;;;;;;;20.85;50.70;101589.56;2062767;28;20047;-69
2022/08/24 01:23:27;;;;;;;3.75;0.50;;;;;;;20.82;50.61;101591.56;2056344;28;34068;-70
2022/08/24 01:24:29;;;;;;;3.72;0.55;;;;;;;20.78;50.55;101590.84;2055097;28;20114;-69
2022/08/24 01:25:34;;;;;;;3.17;0.40;;;;;;;20.77;50.99;101597.28;2056308;28;20075;-69
2022/08/24 01:26:49;;;;;;;2.83;0.50;;;;;;;20.72;50.88;101591.22;2056285;28;20114;-69
2022/08/24 01:27:54;;;;;;;4.90;0.60;;;;;;;20.73;51.09;101587.53;2055788;28;24229;-70
2022/08/24 01:29:03;;;;;;;2.22;0.40;;;;;;;20.71;50.87;101590.34;2056974;28;21828;-70
2022/08/24 01:30:12;;;;;;;4.93;0.45;;;;;;;20.68;51.40;101586.91;2056510;28;20105;-70
2022/08/24 01:31:15;;;;;;;3.33;0.57;;;;;;;20.66;50.80;101592.44;2048712;28;20129;-69
2022/08/24 01:32:23;;;;;;;1.77;0.50;;;;;;;20.64;51.07;101593.47;2056360;28;21526;-69
2022/08/24 01:33:30;;;;;;;3.13;0.60;;;;;;;20.63;51.74;101597.16;2063595;28;37154;-70
2022/08/24 01:34:35;;;;;;;2.35;0.40;;;;;;;20.61;51.63;101591.81;2065154;28;25632;-70
2022/08/24 01:35:38;;;;;;;3.63;0.40;;;;;;;20.59;51.57;101597.28;2055947;28;20149;-70
2022/08/24 01:36:47;;;;;;;4.28;0.65;;;;;;;20.58;51.06;101590.09;2049044;28;20036;-70
2022/08/24 01:37:50;;;;;;;2.78;0.40;;;;;;;20.57;51.42;101593.78;2056764;28;20106;-70
2022/08/24 01:38:54;;;;;;;3.15;0.40;;;;;;;20.56;51.43;101588.41;2064611;28;20994;-70
2022/08/24 01:39:57;;;;;;;2.90;0.50;;;;;;;20.56;51.90;101592.00;2048054;28;20119;-69
2022/08/24 01:41:03;;;;;;;2.30;0.40;;;;;;;20.53;52.22;101581.31;2049258;28;20833;-70
2022/08/24 01:42:05;;;;;;;5.93;0.47;;;;;;;20.52;51.81;101584.97;2064340;28;20039;-70
2022/08/24 01:43:10;;;;;;;1.98;0.40;;;;;;;20.50;51.86;101586.91;2064552;28;20098;-70
2022/08/24 01:44:13;;;;;;;2.80;0.50;;;;;;;20.48;51.96;101596.13;2056204;28;20122;-70
2022/08/24 01:45:19;;;;;;;4.50;0.43;;;;;;;20.45;51.62;101597.16;2048691;28;20178;-71
2022/08/24 01:46:23;;;;;;;1.52;0.30;;;;;;;20.42;51.87;101594.59;2056563;28;20039;-70
2022/08/24 01:47:25;;;;;;;1.85;0.52;;;;;;;20.42;51.75;101597.31;2063789;28;25455;-69
2022/08/24 01:48:27;;;;;;;2.80;0.45;;;;;;;20.44;52.22;101599.97;2063984;28;20055;-70
2022/08/24 01:49:33;;;;;;;2.65;0.60;;;;;;;20.39;52.16;101601.09;2064305;28;20046;-69
2022/08/24 01:50:37;;;;;;;2.10;0.50;;;;;;;20.39;52.37;101597.50;2055814;28;20051;-69
2022/08/24 01:51:42;;;;;;;3.35;0.50;;;;;;;20.36;52.93;101598.53;2048779;28;20055;-69
2022/08/24 01:52:44;;;;;;;2.05;0.50;;;;;;;20.34;52.92;101605.91;2055915;28;20047;-69
2022/08/24 01:54:06;;;;;;;2.67;0.57;;;;;;;20.32;53.01;101604.25;2061491;28;20857;-70
2022/08/24 01:55:14;;;;;;;2.25;0.70;;;;;;;20.30;52.70;101600.72;2055723;28;20071;-70
2022/08/24 01:56:16;;;;;;;2.60;0.60;;;;;;;20.28;53.09;101594.47;2056076;28;20047;-70
2022/08/24 01:57:23;;;;;;;3.75;0.45;;;;;;;20.27;52.61;101609.03;2056325;28;20098;-70
2022/08/24 01:58:25;;;;;;;2.70;0.60;;;;;;;20.24;52.75;101599.19;2056053;28;20052;-70
2022/08/24 01:59:28;;;;;;;4.45;0.63;;;;;;;20.23;52.91;101602.88;2056135;28;20039;-70
2022/08/24 02:00:32;;;;;;;5.18;0.98;;;;;;;20.23;53.39;101604.72;2064425;28;20117;-70
2022/08/24 02:01:41;;;;;;;2.75;0.50;;;;;;;20.19;53.09;101604.00;2063451;28;20122;-72
2022/08/24 02:02:43;;;;;;;2.00;0.50;;;;;;;20.17;52.96;101606.81;2063758;28;20057;-69
2022/08/24 02:03:45;;;;;;;2.63;0.50;;;;;;;20.15;53.47;101603.28;2062440;28;20237;-70
2022/08/24 02:04:48;;;;;;;4.50;0.60;;;;;;;20.13;53.74;101610.63;2053255;28;20600;-70
2022/08/24 02:05:50;;;;;;;3.72;0.60;;;;;;;20.14;53.25;101598.81;2064069;28;20149;-70
2022/08/24 02:06:53;;;;;;;4.53;0.50;;;;;;;20.13;53.74;101607.91;2063078;28;20897;-70
2022/08/24 02:07:55;;;;;;;2.40;0.50;;;;;;;20.11;54.04;101606.25;2064445;28;20047;-70
2022/08/24 02:08:57;;;;;;;1.73;0.70;;;;;;;20.12;53.28;101614.31;2063416;28;20197;-70
2022/08/24 02:09:59;;;;;;;2.17;0.60;;;;;;;20.10;53.71;101608.09;2063814;28;20077;-70
2022/08/24 02:11:08;;;;;;;1.40;0.40;;;;;;;20.10;53.38;101604.47;2063794;28;20037;-70
2022/08/24 02:12:10;;;;;;;2.33;0.50;;;;;;;20.06;53.75;101608.31;2064412;28;20043;-69
2022/08/24 02:13:12;;;;;;;2.85;0.47;;;;;;;20.05;53.82;101612.00;2071741;28;20101;-69
2022/08/24 02:14:14;;;;;;;3.20;0.70;;;;;;;20.03;54.00;101614.81;2055914;28;21064;-69
2022/08/24 02:15:16;;;;;;;3.58;0.50;;;;;;;20.02;53.75;101604.88;2048205;28;20983;-69
2022/08/24 02:16:18;;;;;;;3.53;0.50;;;;;;;19.98;54.25;101606.88;2064271;28;20224;-69
2022/08/24 02:17:21;;;;;;;1.70;0.43;;;;;;;19.98;53.77;101612.31;2071947;28;20054;-69
2022/08/24 02:18:24;;;;;;;1.27;0.45;;;;;;;19.97;53.91;101621.44;2072134;28;20038;-69
2022/08/24 02:19:26;;;;;;;3.40;0.75;;;;;;;19.95;54.64;101617.03;2060790;28;20050;-70
2022/08/24 02:20:29;;;;;;;3.33;0.75;;;;;;;19.94;54.18;101615.28;2048494;28;20036;-69
2022/08/24 02:21:31;;;;;;;4.18;0.60;;;;;;;19.92;54.25;101614.47;2055606;28;20925;-69
2022/08/24 02:22:33;;;;;;;3.22;0.57;;;;;;;19.88;54.37;101615.59;2063645;28;31599;-69
2022/08/24 02:23:37;;;;;;;2.70;0.70;;;;;;;19.85;54.51;101622.06;2063632;28;20042;-69
2022/08/24 02:24:40;;;;;;;1.52;0.40;;;;;;;19.82;54.63;101612.22;2056084;28;20042;-69
2022/08/24 02:25:44;;;;;;;4.72;0.50;;;;;;;19.80;54.85;101611.41;2055808;28;20909;-69
2022/08/24 02:26:48;;;;;;;4.55;0.80;;;;;;;19.80;54.75;101613.25;2056187;28;20464;-69
2022/08/24 02:27:49;;;;;;;2.72;0.55;;;;;;;19.78;54.79;101610.63;2063368;28;20089;-67
2022/08/24 02:28:52;;;;;;;2.53;0.40;;;;;;;19.78;54.93;101618.78;2064333;28;20043;-69
2022/08/24 02:29:54;;;;;;;3.88;0.57;;;;;;;19.75;54.91;101610.78;2055406;28;20031;-69
2022/08/24 02:30:56;;;;;;;2.33;0.60;;;;;;;19.73;55.32;101618.13;2056402;28;20043;-69
2022/08/24 02:31:58;;;;;;;2.90;0.60;;;;;;;19.72;55.63;101612.72;2048312;28;20090;-69
2022/08/24 02:33:01;;;;;;;1.33;0.43;;;;;;;19.69;55.37;101611.06;2056120;28;20161;-69
2022/08/24 02:34:05;;;;;;;6.78;0.80;;;;;;;19.64;55.50;101611.28;2063241;28;21348;-69
2022/08/24 02:35:08;;;;;;;2.28;0.50;;;;;;;19.63;56.08;101611.34;2065417;28;25429;-69
2022/08/24 02:36:13;;;;;;;5.38;0.50;;;;;;;19.63;55.75;101611.34;2055189;28;20048;-69
2022/08/24 02:37:26;;;;;;;3.75;0.70;;;;;;;19.59;55.77;101610.63;2063816;28;20948;-69
2022/08/24 02:38:31;;;;;;;3.58;0.52;;;;;;;19.59;55.99;101609.75;2063742;28;20129;-69
2022/08/24 02:39:33;;;;;;;2.78;0.73;;;;;;;19.56;56.06;101612.63;2055760;28;20043;-69
2022/08/24 02:40:41;;;;;;;2.58;0.63;;;;;;;19.52;56.11;101603.75;2056027;28;20896;-70
2022/08/24 02:41:46;;;;;;;3.63;0.60;;;;;;;19.51;56.50;101607.44;2055706;28;20414;-69
2022/08/24 02:42:50;;;;;;;4.82;0.77;;;;;;;19.50;56.30;101612.94;2063829;28;20046;-69
2022/08/24 02:43:54;;;;;;;2.58;0.70;;;;;;;19.46;56.63;101607.66;2063309;28;20047;-69
2022/08/24 02:44:56;;;;;;;3.05;0.60;;;;;;;19.45;56.58;101605.91;2064029;28;20047;-69
2022/08/24 02:45:58;;;;;;;2.55;0.70;;;;;;;19.42;56.43;101608.75;2064214;28;20039;-69
2022/08/24 02:47:00;;;;;;;1.25;0.50;;;;;;;19.40;57.29;101610.69;2063969;28;20891;-69
2022/08/24 02:48:04;;;;;;;2.60;0.70;;;;;;;19.40;56.53;101607.97;2063483;28;20047;-70
2022/08/24 02:49:06;;;;;;;5.97;0.70;;;;;;;19.37;57.07;101609.94;2055301;28;20090;-70
2022/08/24 02:50:15;;;;;;;3.13;0.90;;;;;;;19.35;57.02;101606.44;2063031;28;20053;-70
2022/08/24 02:51:30;;;;;;;1.95;0.52;;;;;;;19.32;57.15;101603.88;2062682;28;20038;-70
2022/08/24 02:52:34;;;;;;;3.17;0.63;;;;;;;19.29;57.34;101615.75;2049088;28;20916;-69
2022/08/24 02:53:38;;;;;;;6.15;0.70;;;;;;;19.27;57.64;101614.94;2056109;28;20039;-70
2022/08/24 02:54:41;;;;;;;2.47;0.60;;;;;;;19.25;57.30;101616.84;2055680;28;20036;-69
2022/08/24 02:55:43;;;;;;;3.88;0.60;;;;;;;19.22;57.57;101620.59;2055805;28;20182;-70
2022/08/24 02:56:47;;;;;;;3.15;0.80;;;;;;;19.21;57.87;101620.69;2055607;28;20055;-70
2022/08/24 02:57:52;;;;;;;4.03;0.70;;;;;;;19.20;58.06;101618.91;2047609;28;20044;-69
2022/08/24 02:58:56;;;;;;;3.75;0.65;;;;;;;19.16;57.95;101623.59;2047092;28;20977;-70
2022/08/24 02:59:59;;;;;;;2.78;0.85;;;;;;;19.15;57.97;101626.38;2055479;28;20066;-70
2022/08/24 03:01:00;;;;;;;5.47;1.00;;;;;;;19.14;58.72;101621.91;2055749;28;20904;-70
2022/08/24 03:02:03;;;;;;;4.60;1.08;;;;;;;19.08;58.02;101621.25;2055488;28;20159;-70
2022/08/24 03:03:07;;;;;;;4.50;0.65;;;;;;;19.08;58.31;101625.81;2054843;28;20043;-69
2022/08/24 03:04:10;;;;;;;2.13;0.75;;;;;;;19.11;58.64;101624.78;2055163;28;20040;-70
2022/08/24 03:05:14;;;;;;;2.97;0.80;;;;;;;19.09;58.54;101616.69;2049169;28;20044;-69
2022/08/24 03:06:17;;;;;;;3.13;1.02;;;;;;;19.06;58.54;101628.59;2057228;28;20044;-70
2022/08/24 03:07:19;;;;;;;3.35;1.00;;;;;;;19.04;58.51;101625.09;2055222;28;20955;-70
2022/08/24 03:08:20;;;;;;;5.32;1.10;;;;;;;19.02;58.69;101620.66;2056115;28;20106;-70
2022/08/24 03:09:23;;;;;;;4.10;0.80;;;;;;;19.00;59.04;101617.16;2055189;28;20102;-69
2022/08/24 03:10:25;;;;;;;2.20;0.80;;;;;;;18.98;58.85;101619.06;2055763;28;20044;-70
2022/08/24 03:11:27;;;;;;;3.97;0.80;;;;;;;18.95;58.83;101625.53;2055494;28;20735;-70
2022/08/24 03:12:29;;;;;;;5.20;0.80;;;;;;;18.92;59.20;101624.78;2047755;28;20182;-68
2022/08/24 03:13:31;;;;;;;5.07;1.10;;;;;;;18.91;59.05;101623.88;2047534;28;20228;-70
2022/08/24 03:14:34;;;;;;;3.03;0.93;;;;;;;18.91;59.17;101631.16;2047264;28;20878;-70
2022/08/24 03:15:36;;;;;;;3.47;1.05;;;;;;;18.88;59.45;101629.47;2047797;28;20181;-70
2022/08/24 03:16:37;;;;;;;3.15;0.93;;;;;;;18.85;59.50;101624.19;2055366;28;29313;-70
2022/08/24 03:17:41;;;;;;;4.32;0.90;;;;;;;18.85;59.48;101635.03;2047422;28;20987;-69
2022/08/24 03:18:43;;;;;;;2.13;1.02;;;;;;;18.82;59.12;101629.75;2039987;28;20056;-70
2022/08/24 03:19:47;;;;;;;2.20;0.90;;;;;;;18.81;59.51;101628.88;2040150;28;20091;-69
2022/08/24 03:20:49;;;;;;;2.78;1.20;;;;;;;18.79;59.54;101632.56;2055932;28;20035;-70
2022/08/24 03:21:53;;;;;;;5.25;0.90;;;;;;;18.76;60.17;101630.00;2051827;28;20050;-70
2022/08/24 03:22:54;;;;;;;3.75;1.23;;;;;;;18.73;59.77;101625.59;2055548;28;20873;-70
2022/08/24 03:23:56;;;;;;;3.47;0.77;;;;;;;18.73;59.92;101630.16;2063382;28;20055;-69
2022/08/24 03:24:58;;;;;;;6.75;1.23;;;;;;;18.72;60.09;101628.38;2063617;28;21169;-70
2022/08/24 03:26:00;;;;;;;4.07;0.93;;;;;;;18.69;60.53;101638.41;2063388;28;21081;-70
2022/08/24 03:27:03;;;;;;;3.67;1.20;;;;;;;18.68;60.61;101627.63;2063731;28;20077;-69
2022/08/24 03:28:04;;;;;;;3.13;0.98;;;;;;;18.67;60.62;101632.19;2063304;28;20968;-69
2022/08/24 03:29:11;;;;;;;6.20;1.23;;;;;;;18.64;60.41;101635.03;2055568;28;20054;-70
2022/08/24 03:30:16;;;;;;;2.03;0.80;;;;;;;18.62;60.88;101634.22;2055633;28;20040;-69
2022/08/24 03:31:20;;;;;;;3.97;1.30;;;;;;;18.61;60.55;101631.56;2056027;28;20055;-69
2022/08/24 03:32:23;;;;;;;4.45;1.30;;;;;;;18.61;60.61;101637.91;2055542;28;20070;-70
2022/08/24 03:33:25;;;;;;;3.92;1.10;;;;;;;18.58;61.50;101629.91;2055094;28;20216;-69
2022/08/24 03:34:28;;;;;;;2.85;1.02;;;;;;;18.59;61.37;101639.81;2055207;28;20943;-70
2022/08/24 03:35:32;;;;;;;5.65;1.45;;;;;;;18.58;61.16;101632.59;2063446;28;20097;-70
2022/08/24 03:36:34;;;;;;;3.08;1.30;;;;;;;18.55;60.95;101638.16;2065378;28;20047;-70
2022/08/24 03:37:36;;;;;;;4.80;1.40;;;;;;;18.54;61.35;101631.00;2063733;28;20043;-70
2022/08/24 03:38:40;;;;;;;4.95;1.40;;;;;;;18.51;61.32;101631.13;2055342;28;20047;-70
2022/08/24 03:39:42;;;;;;;3.75;1.20;;;;;;;18.53;61.48;101631.06;2062928;28;21077;-68
2022/08/24 03:40:44;;;;;;;6.25;1.50;;;;;;;18.51;61.76;101631.13;2062805;28;20066;-70
2022/08/24 03:41:45;;;;;;;4.20;1.40;;;;;;;18.49;61.85;101631.19;2063062;28;20078;-69
2022/08/24 03:42:50;;;;;;;4.35;1.00;;;;;;;18.47;61.49;101627.66;2055218;28;20042;-70
2022/08/24 03:43:54;;;;;;;5.35;1.45;;;;;;;18.48;62.37;101636.69;2063204;28;20190;-70
2022/08/24 03:44:57;;;;;;;5.28;1.25;;;;;;;18.45;61.73;101624.16;2063343;28;21242;-71
2022/08/24 03:46:01;;;;;;;3.72;1.35;;;;;;;18.45;62.03;101626.88;2062138;28;20039;-69
2022/08/24 03:47:04;;;;;;;4.28;1.10;;;;;;;18.45;61.92;101632.28;2054952;28;20051;-70
2022/08/24 03:48:07;;;;;;;3.45;1.25;;;;;;;18.43;62.09;101630.56;2055236;28;20039;-70
2022/08/24 03:49:09;;;;;;;4.15;1.52;;;;;;;18.43;62.22;101636.00;2062851;28;20069;-69
2022/08/24 03:50:14;;;;;;;4.95;1.30;;;;;;;18.40;62.30;101628.03;2063802;28;20149;-70
2022/08/24 03:51:23;;;;;;;5.05;1.67;;;;;;;18.39;62.17;101629.81;2046770;28;21036;-69
2022/08/24 03:52:25;;;;;;;4.60;1.30;;;;;;;18.38;62.12;101624.50;2049270;28;20110;-70
2022/08/24 03:53:29;;;;;;;4.28;1.10;;;;;;;18.37;62.48;101617.31;2063548;28;20047;-70
2022/08/24 03:54:31;;;;;;;7.07;1.17;;;;;;;18.35;62.47;101628.22;2063161;28;20169;-70
2022/08/24 03:55:33;;;;;;;4.60;1.30;;;;;;;18.33;61.97;101621.97;2063296;28;20929;-70
2022/08/24 03:56:36;;;;;;;6.82;1.65;;;;;;;18.32;62.65;101628.34;2063031;28;21134;-70
2022/08/24 03:57:38;;;;;;;5.32;1.17;;;;;;;18.33;62.47;101626.53;2063289;28;20129;-70
2022/08/24 03:58:41;;;;;;;4.82;1.10;;;;;;;18.31;62.72;101624.75;2063187;28;20057;-70
2022/08/24 03:59:45;;;;;;;3.63;1.20;;;;;;;18.30;63.17;101628.44;2062895;28;20879;-70
2022/08/24 04:00:48;;;;;;;4.47;1.20;;;;;;;18.29;63.47;101620.38;2062978;28;20085;-70
2022/08/24 04:01:51;;;;;;;4.32;1.15;;;;;;;18.27;62.49;101630.41;2063114;28;20051;-69
2022/08/24 04:02:54;;;;;;;4.60;1.13;;;;;;;18.27;62.67;101627.69;2063258;28;21378;-70
2022/08/24 04:03:59;;;;;;;3.25;0.98;;;;;;;18.24;62.90;101627.81;2063330;28;20971;-69
2022/08/24 04:05:09;;;;;;;3.92;1.20;;;;;;;18.22;63.03;101624.31;2062661;28;20998;-69
2022/08/24 04:06:17;;;;;;;3.08;1.02;;;;;;;18.21;62.56;101628.81;2063999;28;20047;-69
2022/08/24 04:07:19;;;;;;;3.47;1.08;;;;;;;18.20;63.18;101626.19;2062622;28;20106;-70
2022/08/24 04:08:21;;;;;;;5.55;1.45;;;;;;;18.19;62.80;101629.84;2063406;28;20847;-69
2022/08/24 04:09:25;;;;;;;3.75;1.40;;;;;;;18.17;62.74;101629.91;2062665;28;20042;-69
2022/08/24 04:10:27;;;;;;;4.90;1.15;;;;;;;18.16;63.31;101625.44;2063433;28;20042;-69
2022/08/24 04:11:29;;;;;;;3.30;1.05;;;;;;;18.16;63.38;101628.16;2062878;28;20165;-70
2022/08/24 04:12:31;;;;;;;3.25;1.17;;;;;;;18.14;63.27;101630.03;2055621;28;20051;-70
2022/08/24 04:13:33;;;;;;;3.95;1.30;;;;;;;18.12;63.31;101629.22;2062997;28;20919;-70
2022/08/24 04:14:34;;;;;;;4.53;1.33;;;;;;;18.12;63.50;101626.50;2063130;28;20047;-70
2022/08/24 04:15:43;;;;;;;6.88;1.25;;;;;;;18.08;63.62;101642.03;2063166;28;20050;-70
2022/08/24 04:16:47;;;;;;;4.10;1.08;;;;;;;18.06;63.22;101633.09;2063303;28;20995;-69
2022/08/24 04:17:59;;;;;;;2.88;1.55;;;;;;;18.05;63.69;101644.00;2055027;28;20145;-68
2022/08/24 04:19:00;;;;;;;4.05;1.30;;;;;;;18.04;63.58;101640.41;2056311;28;20055;-69
2022/08/24 04:20:05;;;;;;;5.43;1.02;;;;;;;18.01;63.59;101637.81;2063540;28;20078;-69
2022/08/24 04:21:24;;;;;;;5.53;1.30;;;;;;;18.01;64.46;101643.25;2063122;28;20059;-70
2022/08/24 04:22:30;;;;;;;5.47;1.40;;;;;;;18.00;64.30;101635.16;2061136;28;20273;-69
2022/08/24 04:23:32;;;;;;;4.82;1.25;;;;;;;17.97;64.03;101646.16;2055954;28;20118;-69
2022/08/24 04:24:47;;;;;;;3.25;1.20;;;;;;;17.97;64.63;101640.75;2063159;28;20140;-69
2022/08/24 04:25:52;;;;;;;5.18;1.38;;;;;;;17.97;64.47;101648.88;2063075;28;20031;-69
2022/08/24 04:26:54;;;;;;;3.72;1.30;;;;;;;17.96;64.40;101641.69;2055139;28;20031;-68
2022/08/24 04:27:58;;;;;;;4.35;1.83;;;;;;;17.95;64.61;101650.78;2055601;28;20472;-69
2022/08/24 04:29:01;;;;;;;4.10;1.33;;;;;;;17.97;64.40;101643.47;2063169;28;20062;-69
2022/08/24 04:30:04;;;;;;;3.20;1.50;;;;;;;17.95;64.75;101642.63;2062923;28;20085;-69
2022/08/24 04:31:20;;;;;;;4.68;1.27;;;;;;;17.91;64.51;101645.47;2063226;28;21000;-69
2022/08/24 04:32:23;;;;;;;2.90;1.00;;;;;;;17.89;64.86;101644.66;2062428;28;20046;-69
2022/08/24 04:33:27;;;;;;;5.28;1.83;;;;;;;17.89;64.67;101647.38;2057634;28;20708;-68
2022/08/24 04:34:31;;;;;;;3.70;1.02;;;;;;;17.89;65.09;101646.47;2054749;28;20098;-69
2022/08/24 04:35:38;;;;;;;4.40;1.38;;;;;;;17.88;64.95;101648.31;2055231;28;20157;-68
2022/08/24 04:36:43;;;;;;;3.60;1.48;;;;;;;17.87;64.83;101654.69;2055032;28;24011;-69
2022/08/24 04:37:46;;;;;;;5.20;1.33;;;;;;;17.86;65.28;101652.03;2063259;28;20133;-69
2022/08/24 04:38:50;;;;;;;5.32;1.30;;;;;;;17.86;64.89;101650.19;2062372;28;29579;-68
2022/08/24 04:40:18;;;;;;;4.07;1.50;;;;;;;17.89;64.79;101654.59;2051825;28;20055;-69
2022/08/24 04:41:22;;;;;;;4.55;1.40;;;;;;;17.93;65.08;101659.84;2054754;28;20094;-69
2022/08/24 04:42:30;;;;;;;3.97;1.40;;;;;;;18.01;65.08;101650.50;2055682;28;20177;-69
2022/08/24 04:43:33;;;;;;;5.47;1.30;;;;;;;18.11;64.55;101663.59;2062816;28;21526;-68
2022/08/24 04:44:35;;;;;;;4.55;1.17;;;;;;;18.20;64.50;101654.19;2062613;28;20058;-68
2022/08/24 04:45:41;;;;;;;3.63;1.42;;;;;;;18.28;64.04;101656.53;2062906;28;20173;-69
2022/08/24 04:46:43;;;;;;;4.30;1.13;;;;;;;18.34;63.92;101659.00;2055399;28;20069;-69
2022/08/24 04:47:45;;;;;;;3.17;1.05;;;;;;;18.39;63.77;101665.06;2063064;28;20039;-78
2022/08/24 04:48:48;;;;;;;5.38;1.83;;;;;;;18.46;63.41;101661.16;2063016;28;20954;-69
2022/08/24 04:49:51;;;;;;;3.60;1.30;;;;;;;18.49;63.31;101666.44;2062730;28;20047;-69
2022/08/24 04:50:53;;;;;;;3.85;1.00;;;;;;;18.56;63.31;101666.19;2055085;28;20225;-69
2022/08/24 04:51:55;;;;;;;4.82;1.13;;;;;;;18.66;63.07;101673.84;2055017;28;20051;-69
2022/08/24 04:52:56;;;;;;;5.38;1.60;;;;;;;18.84;62.28;101672.16;2063162;28;20505;-69
2022/08/24 04:54:01;;;;;;;6.78;1.80;;;;;;;19.01;61.32;101675.91;2063144;28;20976;-69
2022/08/24 04:55:03;;;;;;;5.38;1.50;;;;;;;19.21;61.25;101672.25;2054323;28;20883;-70
2022/08/24 04:56:12;;;;;;;3.47;1.50;;;;;;;19.42;60.33;101676.66;2055039;28;20055;-69
2022/08/24 04:57:14;;;;;;;2.67;1.33;;;;;;;19.64;59.63;101672.91;2062239;28;20055;-69
2022/08/24 04:58:19;;;;;;;3.90;1.20;;;;;;;19.88;58.65;101680.81;2063232;28;20035;-69
2022/08/24 04:59:21;;;;;;;4.57;1.38;;;;;;;20.06;58.24;101673.56;2062810;28;20047;-69
2022/08/24 05:00:23;;;;;;;5.75;1.45;;;;;;;20.26;57.71;101680.69;2054443;28;20058;-69
2022/08/24 05:01:28;;;;;;;3.88;1.35;;;;;;;20.39;56.98;101670.94;2057571;28;20878;-69
2022/08/24 05:02:31;;;;;;;5.53;1.45;;;;;;;20.52;56.76;101677.47;2066186;28;20149;-69
2022/08/24 05:03:37;;;;;;;3.97;1.55;;;;;;;20.66;56.15;101676.78;2057512;28;20044;-69